CheckWX is a tool to help pilots better visualize weather data.  It is not intended as a substitute for an official pre-flight weather briefing.

04:20:34 UTC

DAAP METAR
Illizi Takhamalt Airport
Illizi, Algeria
Current

21 mins ago

DAAP 250400Z 18006KT 6000 NSC 20/M01 Q1016
Observed
Apr-25 @ 04:00 UTC
Wind
  • 180° at 6 KTS
Visibility
6,003 meters
Flight Rules
MVFR
Cloud Levels
  • Clear skies
Temperature
20°C / 68°F
Dewpoint
-1°C / 30°F
Humidity
24%
Altimeter
30" Hg
Pressure
1015.92 hPa
Previous

1 hour ago

DAAP 250300Z 24002KT 6000 NSC 21/M01 Q1015
Observed
Apr-25 @ 03:00 UTC
Wind
  • 240° at 2 KTS
Visibility
6,003 meters
Flight Rules
MVFR
Cloud Levels
  • Clear skies
Temperature
21°C / 70°F
Dewpoint
-1°C / 30°F
Humidity
23%
Altimeter
29.97" Hg
Pressure
1014.92 hPa
Previous

2 hours ago

DAAP 250200Z 00000KT 6000 NSC 23/01 Q1015
Observed
Apr-25 @ 02:00 UTC
Visibility
6,003 meters
Flight Rules
MVFR
Cloud Levels
  • Clear skies
Temperature
23°C / 73°F
Dewpoint
C / 34°F
Humidity
23%
Altimeter
29.97" Hg
Pressure
1014.92 hPa